GB-0603 weather

CLOSED Upottery Air Base
England, United Kingdom

Public forecast

Using degrees Celsius for public forecast. Weather courtesy of forecast.io.

METAR (pilot weather report)

Report is more than 2 hours old.

Closest report is Exeter International Airport, 13.2 nm (24.5 km) SW. Retrieved 2019/07/23 01:20 UTC (3 hours ago):

EGTE 230120Z 21002KT 0400 R26/0500 FG BKN001 15/15 Q1021

TAF (pilot weather forecast)

Forecast is more than 12 hours old.

Closest forecast is Exeter International Airport, 13.2 nm (24.5 km) SW. Retrieved 2012/04/19 12:15 UTC (7 years ago):

TAF TAF EGTE 191401Z 1912/1924 31016KT 9999 SCT030 SCT035 PROB40 TEMPO 1915/1918 7000 SHRA BKN014